sensor_id;sensor_type;location;lat;lon;timestamp;P1;durP1;ratioP1;P2;durP2;ratioP2
13795;SDS011;40911;51.552;9.874;2022-12-15T00:01:54;26.63;;;15.33;;
13795;SDS011;40911;51.552;9.874;2022-12-15T00:04:39;22.97;;;14.80;;
13795;SDS011;40911;51.552;9.874;2022-12-15T00:07:18;23.37;;;15.67;;
13795;SDS011;40911;51.552;9.874;2022-12-15T00:09:58;25.33;;;15.60;;
13795;SDS011;40911;51.552;9.874;2022-12-15T00:12:37;30.70;;;17.50;;
13795;SDS011;40911;51.552;9.874;2022-12-15T00:15:17;25.53;;;17.17;;
13795;SDS011;40911;51.552;9.874;2022-12-15T00:17:57;27.93;;;16.57;;
13795;SDS011;40911;51.552;9.874;2022-12-15T00:20:36;24.53;;;15.93;;
13795;SDS011;40911;51.552;9.874;2022-12-15T00:23:15;23.07;;;16.23;;
13795;SDS011;40911;51.552;9.874;2022-12-15T00:25:54;28.60;;;16.33;;
13795;SDS011;40911;51.552;9.874;2022-12-15T00:28:33;21.87;;;15.57;;
13795;SDS011;40911;51.552;9.874;2022-12-15T00:31:14;30.43;;;16.57;;
13795;SDS011;40911;51.552;9.874;2022-12-15T00:33:54;25.40;;;16.00;;
13795;SDS011;40911;51.552;9.874;2022-12-15T00:36:33;24.97;;;15.20;;
13795;SDS011;40911;51.552;9.874;2022-12-15T00:39:13;30.40;;;16.93;;
13795;SDS011;40911;51.552;9.874;2022-12-15T00:41:38;23.57;;;16.10;;
13795;SDS011;40911;51.552;9.874;2022-12-15T00:44:01;32.13;;;16.63;;
13795;SDS011;40911;51.552;9.874;2022-12-15T00:46:25;28.10;;;16.63;;
13795;SDS011;40911;51.552;9.874;2022-12-15T00:49:04;28.00;;;17.43;;
13795;SDS011;40911;51.552;9.874;2022-12-15T00:51:47;25.57;;;17.30;;
13795;SDS011;40911;51.552;9.874;2022-12-15T00:54:26;27.37;;;16.57;;
13795;SDS011;40911;51.552;9.874;2022-12-15T00:57:05;26.77;;;16.73;;
13795;SDS011;40911;51.552;9.874;2022-12-15T00:59:45;22.97;;;15.43;;
13795;SDS011;40911;51.552;9.874;2022-12-15T01:02:26;26.63;;;16.13;;
13795;SDS011;40911;51.552;9.874;2022-12-15T01:05:06;28.92;;;17.33;;
13795;SDS011;40911;51.552;9.874;2022-12-15T01:07:45;25.63;;;16.43;;
13795;SDS011;40911;51.552;9.874;2022-12-15T01:10:24;22.63;;;15.23;;
13795;SDS011;40911;51.552;9.874;2022-12-15T01:13:04;27.67;;;16.17;;
13795;SDS011;40911;51.552;9.874;2022-12-15T01:15:43;24.87;;;15.33;;
13795;SDS011;40911;51.552;9.874;2022-12-15T01:18:24;25.17;;;16.03;;
13795;SDS011;40911;51.552;9.874;2022-12-15T01:21:04;21.92;;;15.85;;
13795;SDS011;40911;51.552;9.874;2022-12-15T01:23:28;23.50;;;16.40;;
13795;SDS011;40911;51.552;9.874;2022-12-15T01:25:54;25.43;;;16.60;;
13795;SDS011;40911;51.552;9.874;2022-12-15T01:28:16;27.47;;;17.13;;
13795;SDS011;40911;51.552;9.874;2022-12-15T01:30:38;25.97;;;16.73;;
13795;SDS011;40911;51.552;9.874;2022-12-15T01:33:00;29.47;;;16.23;;
13795;SDS011;40911;51.552;9.874;2022-12-15T01:35:23;23.50;;;16.13;;
13795;SDS011;40911;51.552;9.874;2022-12-15T01:37:46;24.37;;;16.63;;
13795;SDS011;40911;51.552;9.874;2022-12-15T01:40:10;24.40;;;16.33;;
13795;SDS011;40911;51.552;9.874;2022-12-15T01:42:51;25.20;;;16.33;;
13795;SDS011;40911;51.552;9.874;2022-12-15T01:48:10;29.63;;;16.57;;
13795;SDS011;40911;51.552;9.874;2022-12-15T01:50:36;26.17;;;16.77;;
13795;SDS011;40911;51.552;9.874;2022-12-15T01:53:02;29.60;;;16.57;;
13795;SDS011;40911;51.552;9.874;2022-12-15T01:55:24;26.93;;;16.57;;
13795;SDS011;40911;51.552;9.874;2022-12-15T01:57:49;23.17;;;16.27;;
13795;SDS011;40911;51.552;9.874;2022-12-15T02:00:15;28.63;;;15.93;;
13795;SDS011;40911;51.552;9.874;2022-12-15T02:02:37;26.17;;;17.10;;
13795;SDS011;40911;51.552;9.874;2022-12-15T02:05:02;29.40;;;17.37;;
13795;SDS011;40911;51.552;9.874;2022-12-15T02:07:29;29.50;;;17.53;;
13795;SDS011;40911;51.552;9.874;2022-12-15T02:09:52;24.13;;;16.53;;
13795;SDS011;40911;51.552;9.874;2022-12-15T02:12:19;28.40;;;16.50;;
13795;SDS011;40911;51.552;9.874;2022-12-15T02:14:53;29.02;;;17.33;;
13795;SDS011;40911;51.552;9.874;2022-12-15T02:17:26;22.30;;;15.87;;
13795;SDS011;40911;51.552;9.874;2022-12-15T02:22:54;24.10;;;15.55;;
13795;SDS011;40911;51.552;9.874;2022-12-15T02:25:50;26.42;;;16.25;;
13795;SDS011;40911;51.552;9.874;2022-12-15T02:28:28;25.03;;;15.97;;
13795;SDS011;40911;51.552;9.874;2022-12-15T02:30:59;28.67;;;15.83;;
13795;SDS011;40911;51.552;9.874;2022-12-15T02:33:56;22.70;;;15.07;;
13795;SDS011;40911;51.552;9.874;2022-12-15T02:36:24;28.40;;;16.23;;
13795;SDS011;40911;51.552;9.874;2022-12-15T02:38:50;29.93;;;17.00;;
13795;SDS011;40911;51.552;9.874;2022-12-15T02:43:52;31.03;;;16.77;;
13795;SDS011;40911;51.552;9.874;2022-12-15T02:46:17;23.77;;;15.87;;
13795;SDS011;40911;51.552;9.874;2022-12-15T02:48:47;29.25;;;17.35;;
13795;SDS011;40911;51.552;9.874;2022-12-15T02:51:23;28.97;;;16.93;;
13795;SDS011;40911;51.552;9.874;2022-12-15T02:53:57;27.13;;;16.23;;
13795;SDS011;40911;51.552;9.874;2022-12-15T02:56:37;25.20;;;16.45;;
13795;SDS011;40911;51.552;9.874;2022-12-15T02:59:06;28.50;;;15.80;;
13795;SDS011;40911;51.552;9.874;2022-12-15T03:01:33;27.57;;;17.00;;
13795;SDS011;40911;51.552;9.874;2022-12-15T03:04:00;23.83;;;15.27;;
13795;SDS011;40911;51.552;9.874;2022-12-15T03:06:24;25.43;;;15.03;;
13795;SDS011;40911;51.552;9.874;2022-12-15T03:08:47;23.00;;;15.70;;
13795;SDS011;40911;51.552;9.874;2022-12-15T03:11:09;21.93;;;15.27;;
13795;SDS011;40911;51.552;9.874;2022-12-15T03:13:31;23.77;;;15.57;;
13795;SDS011;40911;51.552;9.874;2022-12-15T03:15:58;27.63;;;16.23;;
13795;SDS011;40911;51.552;9.874;2022-12-15T03:18:24;24.63;;;15.67;;
13795;SDS011;40911;51.552;9.874;2022-12-15T03:21:04;27.47;;;15.97;;
13795;SDS011;40911;51.552;9.874;2022-12-15T03:23:30;24.57;;;15.73;;
13795;SDS011;40911;51.552;9.874;2022-12-15T03:25:53;28.13;;;15.33;;
13795;SDS011;40911;51.552;9.874;2022-12-15T03:28:18;21.07;;;15.13;;
13795;SDS011;40911;51.552;9.874;2022-12-15T03:30:40;26.60;;;16.93;;
13795;SDS011;40911;51.552;9.874;2022-12-15T03:33:02;26.27;;;16.17;;
13795;SDS011;40911;51.552;9.874;2022-12-15T03:35:25;25.40;;;16.50;;
13795;SDS011;40911;51.552;9.874;2022-12-15T03:37:47;25.77;;;15.33;;
13795;SDS011;40911;51.552;9.874;2022-12-15T03:40:10;23.87;;;15.97;;
13795;SDS011;40911;51.552;9.874;2022-12-15T03:42:33;25.27;;;15.93;;
13795;SDS011;40911;51.552;9.874;2022-12-15T03:45:09;29.03;;;15.90;;
13795;SDS011;40911;51.552;9.874;2022-12-15T03:47:31;26.20;;;16.37;;
13795;SDS011;40911;51.552;9.874;2022-12-15T03:49:53;23.53;;;17.07;;
13795;SDS011;40911;51.552;9.874;2022-12-15T03:52:20;28.27;;;17.30;;
13795;SDS011;40911;51.552;9.874;2022-12-15T03:54:42;22.57;;;15.33;;
13795;SDS011;40911;51.552;9.874;2022-12-15T03:57:04;24.40;;;15.93;;
13795;SDS011;40911;51.552;9.874;2022-12-15T03:59:29;28.57;;;16.37;;
13795;SDS011;40911;51.552;9.874;2022-12-15T04:01:51;23.47;;;15.43;;
13795;SDS011;40911;51.552;9.874;2022-12-15T04:04:13;22.13;;;15.47;;
13795;SDS011;40911;51.552;9.874;2022-12-15T04:06:37;24.73;;;15.87;;
13795;SDS011;40911;51.552;9.874;2022-12-15T04:09:01;25.17;;;16.57;;
13795;SDS011;40911;51.552;9.874;2022-12-15T04:11:23;25.43;;;16.20;;
13795;SDS011;40911;51.552;9.874;2022-12-15T04:13:45;22.87;;;15.97;;
13795;SDS011;40911;51.552;9.874;2022-12-15T04:16:07;24.80;;;16.57;;
13795;SDS011;40911;51.552;9.874;2022-12-15T04:18:29;27.60;;;15.80;;
13795;SDS011;40911;51.552;9.874;2022-12-15T04:20:51;22.03;;;15.27;;
13795;SDS011;40911;51.552;9.874;2022-12-15T04:23:14;24.03;;;15.97;;
13795;SDS011;40911;51.552;9.874;2022-12-15T04:25:40;21.37;;;15.30;;
13795;SDS011;40911;51.552;9.874;2022-12-15T04:28:19;23.03;;;15.93;;
13795;SDS011;40911;51.552;9.874;2022-12-15T04:30:59;23.53;;;15.63;;
13795;SDS011;40911;51.552;9.874;2022-12-15T04:33:41;25.40;;;14.97;;
13795;SDS011;40911;51.552;9.874;2022-12-15T04:36:23;21.70;;;14.43;;
13795;SDS011;40911;51.552;9.874;2022-12-15T04:39:04;22.63;;;16.03;;
13795;SDS011;40911;51.552;9.874;2022-12-15T04:41:44;23.90;;;15.30;;
13795;SDS011;40911;51.552;9.874;2022-12-15T04:44:24;26.40;;;15.73;;
13795;SDS011;40911;51.552;9.874;2022-12-15T04:47:03;25.27;;;15.00;;
13795;SDS011;40911;51.552;9.874;2022-12-15T04:49:46;27.53;;;15.20;;
13795;SDS011;40911;51.552;9.874;2022-12-15T04:52:31;23.37;;;15.33;;
13795;SDS011;40911;51.552;9.874;2022-12-15T04:55:20;28.20;;;15.13;;
13795;SDS011;40911;51.552;9.874;2022-12-15T04:58:07;28.50;;;16.27;;
13795;SDS011;40911;51.552;9.874;2022-12-15T05:00:46;25.63;;;16.43;;
13795;SDS011;40911;51.552;9.874;2022-12-15T05:03:25;25.07;;;15.10;;
13795;SDS011;40911;51.552;9.874;2022-12-15T05:06:05;30.17;;;17.00;;
13795;SDS011;40911;51.552;9.874;2022-12-15T05:08:44;29.93;;;15.20;;
13795;SDS011;40911;51.552;9.874;2022-12-15T05:11:24;26.00;;;16.10;;
13795;SDS011;40911;51.552;9.874;2022-12-15T05:14:07;27.40;;;17.80;;
13795;SDS011;40911;51.552;9.874;2022-12-15T05:16:53;23.63;;;15.47;;
13795;SDS011;40911;51.552;9.874;2022-12-15T05:19:36;28.03;;;16.30;;
13795;SDS011;40911;51.552;9.874;2022-12-15T05:22:20;29.20;;;15.83;;
13795;SDS011;40911;51.552;9.874;2022-12-15T05:25:09;29.83;;;16.43;;
13795;SDS011;40911;51.552;9.874;2022-12-15T05:27:48;24.13;;;16.50;;
13795;SDS011;40911;51.552;9.874;2022-12-15T05:30:31;31.33;;;17.27;;
13795;SDS011;40911;51.552;9.874;2022-12-15T05:33:10;31.67;;;17.40;;
13795;SDS011;40911;51.552;9.874;2022-12-15T05:36:10;24.67;;;15.93;;
13795;SDS011;40911;51.552;9.874;2022-12-15T05:47:42;32.22;;;16.52;;
13795;SDS011;40911;51.552;9.874;2022-12-15T05:50:04;28.70;;;16.47;;
13795;SDS011;40911;51.552;9.874;2022-12-15T05:52:27;26.30;;;16.67;;
13795;SDS011;40911;51.552;9.874;2022-12-15T05:54:50;26.17;;;17.20;;
13795;SDS011;40911;51.552;9.874;2022-12-15T05:57:23;27.67;;;16.90;;
13795;SDS011;40911;51.552;9.874;2022-12-15T06:00:12;26.23;;;15.57;;
13795;SDS011;40911;51.552;9.874;2022-12-15T06:02:35;24.87;;;16.50;;
13795;SDS011;40911;51.552;9.874;2022-12-15T06:05:06;22.00;;;14.80;;
13795;SDS011;40911;51.552;9.874;2022-12-15T06:07:29;25.43;;;15.83;;
13795;SDS011;40911;51.552;9.874;2022-12-15T06:09:56;29.10;;;16.07;;
13795;SDS011;40911;51.552;9.874;2022-12-15T06:12:18;25.50;;;15.93;;
13795;SDS011;40911;51.552;9.874;2022-12-15T06:14:40;27.27;;;17.07;;
13795;SDS011;40911;51.552;9.874;2022-12-15T06:17:02;26.13;;;16.63;;
13795;SDS011;40911;51.552;9.874;2022-12-15T06:19:24;24.90;;;16.37;;
13795;SDS011;40911;51.552;9.874;2022-12-15T06:21:48;26.03;;;16.93;;
13795;SDS011;40911;51.552;9.874;2022-12-15T06:24:10;25.23;;;15.90;;
13795;SDS011;40911;51.552;9.874;2022-12-15T06:26:33;22.13;;;15.50;;
13795;SDS011;40911;51.552;9.874;2022-12-15T06:28:58;27.50;;;16.27;;
13795;SDS011;40911;51.552;9.874;2022-12-15T06:31:22;26.27;;;16.07;;
13795;SDS011;40911;51.552;9.874;2022-12-15T06:33:44;27.40;;;16.57;;
13795;SDS011;40911;51.552;9.874;2022-12-15T06:36:07;29.93;;;16.97;;
13795;SDS011;40911;51.552;9.874;2022-12-15T06:38:32;32.40;;;17.03;;
13795;SDS011;40911;51.552;9.874;2022-12-15T06:40:55;35.67;;;18.30;;
13795;SDS011;40911;51.552;9.874;2022-12-15T06:43:19;27.67;;;16.30;;
13795;SDS011;40911;51.552;9.874;2022-12-15T06:45:46;31.63;;;18.43;;
13795;SDS011;40911;51.552;9.874;2022-12-15T06:48:21;28.10;;;16.93;;
13795;SDS011;40911;51.552;9.874;2022-12-15T06:51:32;28.20;;;17.13;;
13795;SDS011;40911;51.552;9.874;2022-12-15T06:53:59;28.03;;;17.23;;
13795;SDS011;40911;51.552;9.874;2022-12-15T06:56:22;30.53;;;17.70;;
13795;SDS011;40911;51.552;9.874;2022-12-15T06:58:51;27.90;;;18.23;;
13795;SDS011;40911;51.552;9.874;2022-12-15T07:01:14;32.17;;;18.13;;
13795;SDS011;40911;51.552;9.874;2022-12-15T07:03:37;28.07;;;18.23;;
13795;SDS011;40911;51.552;9.874;2022-12-15T07:06:00;32.63;;;17.87;;
13795;SDS011;40911;51.552;9.874;2022-12-15T07:08:24;30.87;;;17.57;;
13795;SDS011;40911;51.552;9.874;2022-12-15T07:10:48;29.13;;;17.77;;
13795;SDS011;40911;51.552;9.874;2022-12-15T07:13:11;29.60;;;17.87;;
13795;SDS011;40911;51.552;9.874;2022-12-15T07:15:34;31.13;;;18.10;;
13795;SDS011;40911;51.552;9.874;2022-12-15T07:17:59;29.80;;;17.83;;
13795;SDS011;40911;51.552;9.874;2022-12-15T07:20:26;32.07;;;18.90;;
13795;SDS011;40911;51.552;9.874;2022-12-15T07:22:48;35.80;;;19.10;;
13795;SDS011;40911;51.552;9.874;2022-12-15T07:25:10;30.37;;;19.30;;
13795;SDS011;40911;51.552;9.874;2022-12-15T07:27:34;32.20;;;18.50;;
13795;SDS011;40911;51.552;9.874;2022-12-15T07:29:55;31.87;;;18.83;;
13795;SDS011;40911;51.552;9.874;2022-12-15T07:32:17;30.10;;;18.20;;
13795;SDS011;40911;51.552;9.874;2022-12-15T07:34:39;29.27;;;18.67;;
13795;SDS011;40911;51.552;9.874;2022-12-15T07:37:01;28.80;;;17.63;;
13795;SDS011;40911;51.552;9.874;2022-12-15T07:39:23;30.23;;;18.33;;
13795;SDS011;40911;51.552;9.874;2022-12-15T07:41:46;32.33;;;18.30;;
13795;SDS011;40911;51.552;9.874;2022-12-15T07:44:09;31.83;;;19.83;;
13795;SDS011;40911;51.552;9.874;2022-12-15T07:46:31;33.70;;;18.70;;
13795;SDS011;40911;51.552;9.874;2022-12-15T07:48:53;29.20;;;18.93;;
13795;SDS011;40911;51.552;9.874;2022-12-15T07:51:15;31.10;;;19.47;;
13795;SDS011;40911;51.552;9.874;2022-12-15T07:53:38;34.37;;;19.77;;
13795;SDS011;40911;51.552;9.874;2022-12-15T07:56:00;43.07;;;22.50;;
13795;SDS011;40911;51.552;9.874;2022-12-15T07:58:24;63.40;;;25.40;;
13795;SDS011;40911;51.552;9.874;2022-12-15T08:00:48;62.13;;;25.40;;
13795;SDS011;40911;51.552;9.874;2022-12-15T08:03:10;51.03;;;21.83;;
13795;SDS011;40911;51.552;9.874;2022-12-15T08:05:32;48.90;;;22.40;;
13795;SDS011;40911;51.552;9.874;2022-12-15T08:07:55;47.77;;;22.57;;
13795;SDS011;40911;51.552;9.874;2022-12-15T08:10:18;44.50;;;22.30;;
13795;SDS011;40911;51.552;9.874;2022-12-15T08:12:40;34.50;;;20.37;;
13795;SDS011;40911;51.552;9.874;2022-12-15T08:15:01;33.93;;;18.07;;
13795;SDS011;40911;51.552;9.874;2022-12-15T08:17:25;29.77;;;19.10;;
13795;SDS011;40911;51.552;9.874;2022-12-15T08:19:47;30.63;;;18.67;;
13795;SDS011;40911;51.552;9.874;2022-12-15T08:22:09;28.83;;;17.23;;
13795;SDS011;40911;51.552;9.874;2022-12-15T08:24:32;30.40;;;17.47;;
13795;SDS011;40911;51.552;9.874;2022-12-15T08:26:53;33.57;;;19.13;;
13795;SDS011;40911;51.552;9.874;2022-12-15T08:29:15;30.67;;;17.63;;
13795;SDS011;40911;51.552;9.874;2022-12-15T08:31:38;26.93;;;17.37;;
13795;SDS011;40911;51.552;9.874;2022-12-15T08:34:02;30.53;;;17.23;;
13795;SDS011;40911;51.552;9.874;2022-12-15T08:36:25;32.33;;;17.50;;
13795;SDS011;40911;51.552;9.874;2022-12-15T08:38:47;35.07;;;18.83;;
13795;SDS011;40911;51.552;9.874;2022-12-15T08:41:10;36.60;;;19.67;;
13795;SDS011;40911;51.552;9.874;2022-12-15T08:43:33;30.50;;;19.10;;
13795;SDS011;40911;51.552;9.874;2022-12-15T08:45:55;33.67;;;20.03;;
13795;SDS011;40911;51.552;9.874;2022-12-15T08:48:16;34.93;;;18.97;;
13795;SDS011;40911;51.552;9.874;2022-12-15T08:50:43;28.33;;;18.03;;
13795;SDS011;40911;51.552;9.874;2022-12-15T08:53:05;33.37;;;18.33;;
13795;SDS011;40911;51.552;9.874;2022-12-15T08:55:27;37.43;;;19.17;;
13795;SDS011;40911;51.552;9.874;2022-12-15T08:57:49;32.63;;;20.13;;
13795;SDS011;40911;51.552;9.874;2022-12-15T09:00:11;32.70;;;19.50;;
13795;SDS011;40911;51.552;9.874;2022-12-15T09:02:34;31.53;;;18.03;;
13795;SDS011;40911;51.552;9.874;2022-12-15T09:04:56;35.63;;;20.60;;
13795;SDS011;40911;51.552;9.874;2022-12-15T09:07:19;30.37;;;19.07;;
13795;SDS011;40911;51.552;9.874;2022-12-15T09:09:41;31.47;;;19.43;;
13795;SDS011;40911;51.552;9.874;2022-12-15T09:12:03;29.07;;;19.47;;
13795;SDS011;40911;51.552;9.874;2022-12-15T09:14:26;32.40;;;19.37;;
13795;SDS011;40911;51.552;9.874;2022-12-15T09:16:48;30.87;;;17.93;;
13795;SDS011;40911;51.552;9.874;2022-12-15T09:19:10;32.73;;;18.53;;
13795;SDS011;40911;51.552;9.874;2022-12-15T09:21:32;26.95;;;17.98;;
13795;SDS011;40911;51.552;9.874;2022-12-15T09:23:57;26.90;;;18.30;;
13795;SDS011;40911;51.552;9.874;2022-12-15T09:26:21;34.75;;;17.48;;
13795;SDS011;40911;51.552;9.874;2022-12-15T09:28:44;25.95;;;17.60;;
13795;SDS011;40911;51.552;9.874;2022-12-15T09:31:07;28.65;;;17.75;;
13795;SDS011;40911;51.552;9.874;2022-12-15T09:33:30;28.33;;;18.75;;
13795;SDS011;40911;51.552;9.874;2022-12-15T09:35:52;28.35;;;18.50;;
13795;SDS011;40911;51.552;9.874;2022-12-15T09:38:14;34.83;;;18.70;;
13795;SDS011;40911;51.552;9.874;2022-12-15T09:40:37;32.08;;;19.65;;
13795;SDS011;40911;51.552;9.874;2022-12-15T09:42:59;29.40;;;18.25;;
13795;SDS011;40911;51.552;9.874;2022-12-15T09:45:21;31.35;;;18.20;;
13795;SDS011;40911;51.552;9.874;2022-12-15T09:47:49;28.80;;;18.13;;
13795;SDS011;40911;51.552;9.874;2022-12-15T09:50:14;31.83;;;19.02;;
13795;SDS011;40911;51.552;9.874;2022-12-15T09:52:39;33.10;;;19.25;;
13795;SDS011;40911;51.552;9.874;2022-12-15T09:55:12;32.97;;;19.85;;
13795;SDS011;40911;51.552;9.874;2022-12-15T09:57:42;29.88;;;19.75;;
13795;SDS011;40911;51.552;9.874;2022-12-15T10:00:15;31.23;;;18.45;;
13795;SDS011;40911;51.552;9.874;2022-12-15T10:02:48;28.63;;;19.42;;
13795;SDS011;40911;51.552;9.874;2022-12-15T10:05:34;30.92;;;19.10;;
13795;SDS011;40911;51.552;9.874;2022-12-15T10:08:04;30.75;;;17.98;;
13795;SDS011;40911;51.552;9.874;2022-12-15T10:10:28;28.73;;;18.55;;
13795;SDS011;40911;51.552;9.874;2022-12-15T10:12:55;31.08;;;19.30;;
13795;SDS011;40911;51.552;9.874;2022-12-15T10:15:22;27.77;;;18.23;;
13795;SDS011;40911;51.552;9.874;2022-12-15T10:17:46;29.95;;;18.42;;
13795;SDS011;40911;51.552;9.874;2022-12-15T10:20:13;29.95;;;19.23;;
13795;SDS011;40911;51.552;9.874;2022-12-15T10:22:38;27.13;;;19.10;;
13795;SDS011;40911;51.552;9.874;2022-12-15T10:25:01;39.33;;;20.85;;
13795;SDS011;40911;51.552;9.874;2022-12-15T10:27:44;37.47;;;19.75;;
13795;SDS011;40911;51.552;9.874;2022-12-15T10:30:17;30.23;;;18.27;;
13795;SDS011;40911;51.552;9.874;2022-12-15T10:32:43;28.48;;;17.95;;
13795;SDS011;40911;51.552;9.874;2022-12-15T10:35:12;26.75;;;17.70;;
13795;SDS011;40911;51.552;9.874;2022-12-15T10:37:36;26.90;;;17.85;;
13795;SDS011;40911;51.552;9.874;2022-12-15T10:39:59;28.98;;;18.00;;
13795;SDS011;40911;51.552;9.874;2022-12-15T10:44:44;26.40;;;16.92;;
13795;SDS011;40911;51.552;9.874;2022-12-15T10:47:10;28.45;;;17.33;;
13795;SDS011;40911;51.552;9.874;2022-12-15T10:49:37;27.83;;;17.25;;
13795;SDS011;40911;51.552;9.874;2022-12-15T10:54:21;25.42;;;16.83;;
13795;SDS011;40911;51.552;9.874;2022-12-15T10:56:46;25.50;;;15.80;;
13795;SDS011;40911;51.552;9.874;2022-12-15T10:59:20;27.92;;;16.80;;
13795;SDS011;40911;51.552;9.874;2022-12-15T11:01:44;29.25;;;16.95;;
13795;SDS011;40911;51.552;9.874;2022-12-15T11:04:14;27.27;;;17.92;;
13795;SDS011;40911;51.552;9.874;2022-12-15T11:06:46;26.77;;;15.82;;
13795;SDS011;40911;51.552;9.874;2022-12-15T11:11:44;28.35;;;16.65;;
13795;SDS011;40911;51.552;9.874;2022-12-15T11:14:25;32.40;;;17.25;;
13795;SDS011;40911;51.552;9.874;2022-12-15T11:16:52;25.55;;;15.73;;
13795;SDS011;40911;51.552;9.874;2022-12-15T11:19:20;27.13;;;17.58;;
13795;SDS011;40911;51.552;9.874;2022-12-15T11:21:51;32.40;;;17.92;;
13795;SDS011;40911;51.552;9.874;2022-12-15T11:24:19;31.48;;;16.63;;
13795;SDS011;40911;51.552;9.874;2022-12-15T11:26:48;27.33;;;16.70;;
13795;SDS011;40911;51.552;9.874;2022-12-15T11:29:19;28.42;;;16.63;;
13795;SDS011;40911;51.552;9.874;2022-12-15T11:31:47;29.88;;;16.70;;
13795;SDS011;40911;51.552;9.874;2022-12-15T11:34:10;28.48;;;15.90;;
13795;SDS011;40911;51.552;9.874;2022-12-15T11:36:43;35.80;;;18.33;;
13795;SDS011;40911;51.552;9.874;2022-12-15T11:39:17;30.52;;;16.50;;
13795;SDS011;40911;51.552;9.874;2022-12-15T11:41:49;36.80;;;18.60;;
13795;SDS011;40911;51.552;9.874;2022-12-15T11:44:22;30.42;;;17.48;;
13795;SDS011;40911;51.552;9.874;2022-12-15T11:46:49;35.20;;;17.13;;
13795;SDS011;40911;51.552;9.874;2022-12-15T11:49:36;32.67;;;17.52;;
13795;SDS011;40911;51.552;9.874;2022-12-15T11:52:20;29.35;;;17.10;;
13795;SDS011;40911;51.552;9.874;2022-12-15T11:54:54;34.92;;;18.38;;
13795;SDS011;40911;51.552;9.874;2022-12-15T12:00:18;31.52;;;16.88;;
13795;SDS011;40911;51.552;9.874;2022-12-15T12:05:35;29.33;;;17.23;;
13795;SDS011;40911;51.552;9.874;2022-12-15T12:08:18;31.80;;;16.95;;
13795;SDS011;40911;51.552;9.874;2022-12-15T12:10:51;33.45;;;17.75;;
13795;SDS011;40911;51.552;9.874;2022-12-15T12:13:19;25.92;;;16.33;;
13795;SDS011;40911;51.552;9.874;2022-12-15T12:15:50;28.08;;;16.65;;
13795;SDS011;40911;51.552;9.874;2022-12-15T12:18:16;30.83;;;17.50;;
13795;SDS011;40911;51.552;9.874;2022-12-15T12:20:42;29.30;;;17.25;;
13795;SDS011;40911;51.552;9.874;2022-12-15T12:23:10;25.17;;;15.20;;
13795;SDS011;40911;51.552;9.874;2022-12-15T12:25:39;26.20;;;17.13;;
13795;SDS011;40911;51.552;9.874;2022-12-15T12:28:09;30.08;;;16.30;;
13795;SDS011;40911;51.552;9.874;2022-12-15T12:30:38;27.30;;;15.52;;
13795;SDS011;40911;51.552;9.874;2022-12-15T12:33:05;29.27;;;17.25;;
13795;SDS011;40911;51.552;9.874;2022-12-15T12:35:35;30.55;;;16.95;;
13795;SDS011;40911;51.552;9.874;2022-12-15T12:38:01;29.67;;;17.63;;
13795;SDS011;40911;51.552;9.874;2022-12-15T12:40:26;34.53;;;17.90;;
13795;SDS011;40911;51.552;9.874;2022-12-15T12:42:54;36.13;;;18.00;;
13795;SDS011;40911;51.552;9.874;2022-12-15T12:45:16;35.13;;;18.85;;
13795;SDS011;40911;51.552;9.874;2022-12-15T12:47:40;37.95;;;17.75;;
13795;SDS011;40911;51.552;9.874;2022-12-15T12:50:11;31.92;;;16.75;;
13795;SDS011;40911;51.552;9.874;2022-12-15T12:52:37;34.90;;;17.45;;
13795;SDS011;40911;51.552;9.874;2022-12-15T12:55:20;33.28;;;17.88;;
13795;SDS011;40911;51.552;9.874;2022-12-15T12:57:46;32.63;;;17.15;;
13795;SDS011;40911;51.552;9.874;2022-12-15T13:05:35;30.63;;;17.42;;
13795;SDS011;40911;51.552;9.874;2022-12-15T13:10:49;34.15;;;16.90;;
13795;SDS011;40911;51.552;9.874;2022-12-15T13:16:03;36.95;;;18.63;;
13795;SDS011;40911;51.552;9.874;2022-12-15T13:18:35;40.33;;;21.35;;
13795;SDS011;40911;51.552;9.874;2022-12-15T13:21:45;31.33;;;16.88;;
13795;SDS011;40911;51.552;9.874;2022-12-15T13:24:16;25.85;;;16.55;;
13795;SDS011;40911;51.552;9.874;2022-12-15T13:26:46;29.60;;;17.85;;
13795;SDS011;40911;51.552;9.874;2022-12-15T13:29:08;28.17;;;16.63;;
13795;SDS011;40911;51.552;9.874;2022-12-15T13:31:38;32.38;;;16.45;;
13795;SDS011;40911;51.552;9.874;2022-12-15T13:34:14;33.00;;;16.65;;
13795;SDS011;40911;51.552;9.874;2022-12-15T13:36:41;26.90;;;16.30;;
13795;SDS011;40911;51.552;9.874;2022-12-15T13:44:46;29.67;;;17.67;;
13795;SDS011;40911;51.552;9.874;2022-12-15T13:47:14;29.15;;;17.80;;
13795;SDS011;40911;51.552;9.874;2022-12-15T13:49:41;33.47;;;17.40;;
13795;SDS011;40911;51.552;9.874;2022-12-15T13:52:09;25.20;;;17.33;;
13795;SDS011;40911;51.552;9.874;2022-12-15T13:54:34;25.98;;;16.65;;
13795;SDS011;40911;51.552;9.874;2022-12-15T13:57:00;32.47;;;17.80;;
13795;SDS011;40911;51.552;9.874;2022-12-15T13:59:26;29.67;;;17.65;;
13795;SDS011;40911;51.552;9.874;2022-12-15T14:01:54;32.58;;;17.30;;
13795;SDS011;40911;51.552;9.874;2022-12-15T14:04:18;27.00;;;17.13;;
13795;SDS011;40911;51.552;9.874;2022-12-15T14:06:44;27.15;;;16.55;;
13795;SDS011;40911;51.552;9.874;2022-12-15T14:09:09;27.65;;;17.42;;
13795;SDS011;40911;51.552;9.874;2022-12-15T14:11:34;30.45;;;18.27;;
13795;SDS011;40911;51.552;9.874;2022-12-15T14:13:57;30.13;;;17.67;;
13795;SDS011;40911;51.552;9.874;2022-12-15T14:16:20;43.00;;;20.45;;
13795;SDS011;40911;51.552;9.874;2022-12-15T14:18:44;33.67;;;19.13;;
13795;SDS011;40911;51.552;9.874;2022-12-15T14:21:24;32.78;;;18.90;;
13795;SDS011;40911;51.552;9.874;2022-12-15T14:23:46;31.20;;;17.73;;
13795;SDS011;40911;51.552;9.874;2022-12-15T14:26:09;33.47;;;18.33;;
13795;SDS011;40911;51.552;9.874;2022-12-15T14:28:33;33.78;;;18.33;;
13795;SDS011;40911;51.552;9.874;2022-12-15T14:30:57;25.63;;;17.00;;
13795;SDS011;40911;51.552;9.874;2022-12-15T14:33:21;28.38;;;17.63;;
13795;SDS011;40911;51.552;9.874;2022-12-15T14:35:43;28.63;;;17.63;;
13795;SDS011;40911;51.552;9.874;2022-12-15T14:38:10;31.77;;;18.23;;
13795;SDS011;40911;51.552;9.874;2022-12-15T14:40:36;29.85;;;17.60;;
13795;SDS011;40911;51.552;9.874;2022-12-15T14:43:00;32.78;;;19.20;;
13795;SDS011;40911;51.552;9.874;2022-12-15T14:45:23;34.72;;;18.90;;
13795;SDS011;40911;51.552;9.874;2022-12-15T14:47:50;30.55;;;19.23;;
13795;SDS011;40911;51.552;9.874;2022-12-15T14:50:14;35.47;;;18.67;;
13795;SDS011;40911;51.552;9.874;2022-12-15T14:52:38;29.55;;;18.55;;
13795;SDS011;40911;51.552;9.874;2022-12-15T14:55:03;36.65;;;21.83;;
13795;SDS011;40911;51.552;9.874;2022-12-15T14:57:46;37.50;;;21.20;;
13795;SDS011;40911;51.552;9.874;2022-12-15T15:00:21;33.97;;;19.73;;
13795;SDS011;40911;51.552;9.874;2022-12-15T15:02:45;33.15;;;18.83;;
13795;SDS011;40911;51.552;9.874;2022-12-15T15:05:13;37.47;;;22.30;;
13795;SDS011;40911;51.552;9.874;2022-12-15T15:07:46;32.38;;;19.98;;
13795;SDS011;40911;51.552;9.874;2022-12-15T15:10:19;36.15;;;20.85;;
13795;SDS011;40911;51.552;9.874;2022-12-15T15:12:43;32.17;;;19.30;;
13795;SDS011;40911;51.552;9.874;2022-12-15T15:15:10;34.50;;;20.48;;
13795;SDS011;40911;51.552;9.874;2022-12-15T15:17:36;31.80;;;17.88;;